Time;durP1;ratioP1;P1;durP2;ratioP2;P2;SDS_P1;SDS_P2;PMS_P1;PMS_P2;Temp;Humidity;BMP_temperature;BMP_pressure;BME280_temperature;BME280_humidity;BME280_pressure;Samples;Min_cycle;Max_cycle;Signal;HPM_P1;HPM_P2
2022/03/16 00:01:04;;;;;;;46.05;24.30;;;;;;;4.00;100.00;101912.31;5029789;28;20130;-85
2022/03/16 00:03:31;;;;;;;56.03;26.77;;;;;;;3.97;100.00;101913.09;5041243;28;20076;-85
2022/03/16 00:05:57;;;;;;;40.45;22.92;;;;;;;3.94;100.00;101915.56;5056228;28;20557;-86
2022/03/16 00:08:27;;;;;;;49.53;24.70;;;;;;;3.92;100.00;101912.03;5021405;28;20048;-85
2022/03/16 00:10:54;;;;;;;37.70;23.00;;;;;;;3.90;100.00;101909.38;5022727;28;20084;-84
2022/03/16 00:13:20;;;;;;;54.28;24.75;;;;;;;3.89;100.00;101914.50;5023695;28;20116;-85
2022/03/16 00:15:47;;;;;;;49.63;26.58;;;;;;;3.88;100.00;101913.59;5026479;28;20509;-85
2022/03/16 00:18:14;;;;;;;43.55;22.27;;;;;;;3.84;100.00;101914.31;5039837;28;20049;-85
2022/03/16 00:20:40;;;;;;;45.67;25.80;;;;;;;3.82;100.00;101910.78;5039249;28;20064;-85
2022/03/16 00:23:07;;;;;;;47.63;26.35;;;;;;;3.81;100.00;101921.97;5041164;28;20059;-86
2022/03/16 00:25:35;;;;;;;49.10;25.65;;;;;;;3.83;100.00;101924.63;5040261;28;20612;-85
2022/03/16 00:28:01;;;;;;;46.30;23.83;;;;;;;3.82;100.00;101931.53;5040581;28;20588;-85
2022/03/16 00:30:28;;;;;;;45.75;24.85;;;;;;;3.83;100.00;101916.84;5025968;28;20049;-85
2022/03/16 00:32:55;;;;;;;50.63;27.67;;;;;;;3.89;100.00;101924.88;5041896;28;20063;-84
2022/03/16 00:35:22;;;;;;;46.83;24.92;;;;;;;3.97;100.00;101926.91;5062305;28;20045;-85
2022/03/16 00:37:48;;;;;;;46.67;23.48;;;;;;;4.10;100.00;101933.44;5024480;28;20044;-85
2022/03/16 00:40:15;;;;;;;42.00;23.52;;;;;;;4.23;100.00;101932.22;5042918;28;20064;-85
2022/03/16 00:42:42;;;;;;;50.95;25.35;;;;;;;4.35;100.00;101931.78;5041609;28;20068;-84
2022/03/16 00:45:09;;;;;;;51.47;23.70;;;;;;;4.47;100.00;101934.84;5029943;28;20110;-85
2022/03/16 00:47:36;;;;;;;43.85;23.55;;;;;;;4.58;100.00;101935.22;5043331;28;20123;-85
2022/03/16 00:50:03;;;;;;;46.25;24.45;;;;;;;4.66;100.00;101934.63;5028999;28;20171;-85
2022/03/16 00:52:29;;;;;;;44.13;24.98;;;;;;;4.74;100.00;101933.19;5044345;28;20123;-85
2022/03/16 00:54:56;;;;;;;47.60;23.88;;;;;;;4.80;100.00;101938.59;5030449;28;20048;-85
2022/03/16 00:57:23;;;;;;;44.28;24.40;;;;;;;4.83;100.00;101943.88;5043841;28;20064;-85
2022/03/16 00:59:49;;;;;;;43.78;22.40;;;;;;;4.87;100.00;101937.09;5045582;28;20044;-85
2022/03/16 01:02:16;;;;;;;45.45;23.90;;;;;;;4.89;100.00;101938.03;5021111;28;20048;-85
2022/03/16 01:04:43;;;;;;;40.10;22.05;;;;;;;4.89;100.00;101936.31;5047284;28;20041;-85
2022/03/16 01:07:10;;;;;;;46.22;22.90;;;;;;;4.89;100.00;101938.91;5030593;28;20148;-85
2022/03/16 01:09:36;;;;;;;42.55;22.70;;;;;;;4.89;100.00;101941.53;5028746;28;20099;-85
2022/03/16 01:12:04;;;;;;;42.55;21.92;;;;;;;4.90;100.00;101953.66;5029382;28;20055;-85
2022/03/16 01:14:31;;;;;;;50.03;23.73;;;;;;;4.92;100.00;101949.41;5028865;28;20126;-85
2022/03/16 01:16:58;;;;;;;36.72;19.95;;;;;;;4.94;100.00;101950.34;5033360;28;20151;-85
2022/03/16 01:19:24;;;;;;;43.15;21.50;;;;;;;4.95;100.00;101951.22;5033432;28;20056;-85
2022/03/16 01:21:51;;;;;;;36.58;19.38;;;;;;;4.94;100.00;101947.75;5025005;28;20064;-86
2022/03/16 01:24:17;;;;;;;39.30;21.98;;;;;;;4.91;100.00;101944.16;5045474;28;20028;-85
2022/03/16 01:26:46;;;;;;;43.38;23.65;;;;;;;4.85;100.00;101938.75;5030327;28;20051;-85
2022/03/16 01:29:13;;;;;;;43.65;24.27;;;;;;;4.75;100.00;101941.03;5044164;28;20053;-84
2022/03/16 01:31:40;;;;;;;50.20;25.95;;;;;;;4.65;100.00;101933.72;5023957;28;20044;-85
2022/03/16 01:34:06;;;;;;;42.50;23.83;;;;;;;4.53;100.00;101931.59;5046103;28;20131;-84
2022/03/16 01:36:33;;;;;;;48.92;24.02;;;;;;;4.42;100.00;101930.28;5061811;28;20135;-85
2022/03/16 01:39:00;;;;;;;53.70;25.38;;;;;;;4.32;100.00;101939.47;5047362;28;20575;-85
2022/03/16 01:41:26;;;;;;;57.67;27.45;;;;;;;4.22;100.00;101939.94;5043446;28;20082;-85
2022/03/16 01:43:56;;;;;;;49.72;25.35;;;;;;;4.16;100.00;101942.28;5044948;28;20045;-86
2022/03/16 01:46:23;;;;;;;46.22;24.77;;;;;;;4.07;100.00;101942.84;5049715;28;20041;-85
2022/03/16 01:48:52;;;;;;;48.88;26.02;;;;;;;4.00;100.00;101935.63;5048696;28;20059;-84
2022/03/16 01:51:19;;;;;;;54.92;26.20;;;;;;;3.92;100.00;101935.34;5055931;28;20076;-84
2022/03/16 01:53:47;;;;;;;47.33;25.17;;;;;;;3.86;100.00;101940.28;5033193;28;20068;-85
2022/03/16 01:56:17;;;;;;;48.40;25.00;;;;;;;3.78;100.00;101935.69;5041935;28;20432;-85
2022/03/16 01:58:44;;;;;;;42.17;22.08;;;;;;;3.72;100.00;101937.16;5044563;28;20400;-85
2022/03/16 02:01:13;;;;;;;50.75;25.83;;;;;;;3.64;100.00;101935.13;5031059;28;20056;-85
2022/03/16 02:03:40;;;;;;;54.90;26.20;;;;;;;3.66;100.00;101940.38;5048799;28;20053;-84
2022/03/16 02:06:09;;;;;;;53.97;26.98;;;;;;;3.63;100.00;101941.13;5030764;28;20049;-85
2022/03/16 02:08:37;;;;;;;45.03;24.95;;;;;;;3.60;100.00;101951.38;5031138;28;20045;-85
2022/03/16 02:11:05;;;;;;;45.35;25.05;;;;;;;3.58;100.00;101949.53;5046728;28;20068;-85
2022/03/16 02:13:34;;;;;;;45.65;25.60;;;;;;;3.55;100.00;101947.72;5043484;28;20139;-85
2022/03/16 02:16:02;;;;;;;46.30;26.02;;;;;;;3.50;100.00;101949.22;5030674;28;20052;-85
2022/03/16 02:18:28;;;;;;;52.92;26.33;;;;;;;3.48;100.00;101950.84;5042508;28;20048;-84
2022/03/16 02:20:56;;;;;;;44.47;25.35;;;;;;;3.44;100.00;101956.72;5046794;28;20052;-85
2022/03/16 02:23:22;;;;;;;51.83;25.95;;;;;;;3.40;100.00;101965.19;5063694;28;20044;-84
2022/03/16 02:25:58;;;;;;;50.85;26.75;;;;;;;3.34;100.00;101960.66;5044200;28;20048;-84
2022/03/16 02:28:25;;;;;;;46.97;25.60;;;;;;;3.30;100.00;101963.94;5025747;28;20072;-85
2022/03/16 02:30:53;;;;;;;53.42;26.13;;;;;;;3.25;100.00;101966.31;5047566;28;20056;-85
2022/03/16 02:33:25;;;;;;;43.78;24.20;;;;;;;3.19;100.00;101968.63;5029493;28;20045;-85
2022/03/16 02:35:52;;;;;;;49.10;27.83;;;;;;;3.14;100.00;101967.56;5046111;28;20139;-85
2022/03/16 02:38:19;;;;;;;49.70;26.30;;;;;;;3.08;100.00;101965.59;5047248;28;20040;-85
2022/03/16 02:40:45;;;;;;;46.50;25.67;;;;;;;3.04;100.00;101967.97;5053003;28;20048;-85
2022/03/16 02:43:15;;;;;;;53.42;27.00;;;;;;;2.99;100.00;101967.81;5045954;28;20044;-84
2022/03/16 02:45:42;;;;;;;58.13;27.83;;;;;;;2.96;100.00;101967.69;5048855;28;20049;-85
2022/03/16 02:48:11;;;;;;;57.13;28.48;;;;;;;2.91;100.00;101970.06;5036303;28;20024;-84
2022/03/16 02:50:38;;;;;;;52.70;28.02;;;;;;;2.86;100.00;101966.38;5051679;28;20049;-84
2022/03/16 02:53:05;;;;;;;49.10;27.13;;;;;;;2.84;100.00;101972.31;5036948;28;20070;-84
2022/03/16 02:55:33;;;;;;;48.65;26.45;;;;;;;2.80;100.00;101977.34;5047181;28;20044;-85
2022/03/16 02:58:02;;;;;;;58.53;29.30;;;;;;;2.77;100.00;101972.03;5047550;28;20056;-85
2022/03/16 03:00:30;;;;;;;46.55;24.65;;;;;;;2.74;100.00;101981.38;5051260;28;20078;-84
2022/03/16 03:02:57;;;;;;;51.95;26.13;;;;;;;2.68;100.00;101976.78;5037625;28;21317;-84
2022/03/16 03:05:23;;;;;;;43.70;24.17;;;;;;;2.68;100.00;101989.72;5049817;28;20044;-84
2022/03/16 03:07:52;;;;;;;51.28;25.90;;;;;;;2.68;100.00;101975.91;5047315;28;20052;-85
2022/03/16 03:10:19;;;;;;;54.83;26.75;;;;;;;2.65;100.00;101977.53;5043408;28;20044;-85
2022/03/16 03:12:47;;;;;;;53.47;27.63;;;;;;;2.65;100.00;101974.94;5062273;28;20595;-85
2022/03/16 03:15:15;;;;;;;48.15;24.02;;;;;;;2.62;100.00;101977.41;5042985;28;20051;-84
2022/03/16 03:17:45;;;;;;;46.88;24.95;;;;;;;2.58;100.00;101967.75;5050740;28;20048;-84
2022/03/16 03:20:13;;;;;;;45.80;22.83;;;;;;;2.53;100.00;101971.81;5050923;28;20394;-84
2022/03/16 03:22:41;;;;;;;41.90;23.60;;;;;;;2.51;100.00;101965.69;5048430;28;20070;-84
2022/03/16 03:25:14;;;;;;;52.10;23.58;;;;;;;2.48;100.00;101969.03;5028845;28;20048;-85
2022/03/16 03:27:41;;;;;;;49.88;22.25;;;;;;;2.42;100.00;101963.56;5031068;28;20079;-84
2022/03/16 03:30:12;;;;;;;36.75;21.13;;;;;;;2.37;100.00;101959.88;5042729;28;20049;-85
2022/03/16 03:32:40;;;;;;;58.13;22.10;;;;;;;2.36;100.00;101963.31;5034227;28;20074;-84
2022/03/16 03:35:07;;;;;;;56.78;20.35;;;;;;;2.28;100.00;101964.63;5037210;28;20071;-85
2022/03/16 03:37:36;;;;;;;54.35;19.95;;;;;;;2.23;100.00;101971.28;5045653;28;20060;-85
2022/03/16 03:40:06;;;;;;;55.42;19.80;;;;;;;2.17;100.00;101968.44;5051573;28;20056;-84
2022/03/16 03:42:35;;;;;;;42.65;19.17;;;;;;;2.10;100.00;101970.72;5044017;28;20404;-85
2022/03/16 03:45:05;;;;;;;35.92;19.60;;;;;;;2.07;100.00;101964.53;5046030;28;20055;-84
2022/03/16 03:47:31;;;;;;;34.75;16.60;;;;;;;2.01;100.00;101962.56;5040996;28;20060;-85
2022/03/16 03:49:58;;;;;;;39.58;17.30;;;;;;;1.96;100.00;101961.44;5059610;28;20052;-85
2022/03/16 03:52:25;;;;;;;31.70;15.15;;;;;;;1.85;100.00;101963.50;5026176;28;20406;-85
2022/03/16 03:54:51;;;;;;;30.55;15.50;;;;;;;1.80;100.00;101952.09;5040980;28;20051;-84
2022/03/16 03:57:18;;;;;;;35.40;16.55;;;;;;;1.80;100.00;101954.69;5045401;28;20043;-85
2022/03/16 03:59:45;;;;;;;32.63;16.13;;;;;;;1.78;100.00;101952.00;5049522;28;20045;-85
2022/03/16 04:02:12;;;;;;;49.63;16.70;;;;;;;1.81;100.00;101956.41;5064016;28;20041;-84
2022/03/16 04:04:43;;;;;;;40.85;17.27;;;;;;;1.80;100.00;101960.72;5027173;28;20399;-85
2022/03/16 04:07:09;;;;;;;25.30;15.65;;;;;;;1.85;100.00;101962.63;5027559;28;20032;-85
2022/03/16 04:09:36;;;;;;;30.63;15.43;;;;;;;1.86;100.00;101962.69;5027908;28;20153;-85
2022/03/16 04:12:03;;;;;;;33.05;15.65;;;;;;;1.86;100.00;101966.97;5026264;28;20155;-85
2022/03/16 04:14:30;;;;;;;36.00;15.65;;;;;;;1.85;100.00;101968.66;5041196;28;20052;-84
2022/03/16 04:16:56;;;;;;;49.53;17.38;;;;;;;1.84;100.00;101969.50;5041951;28;20050;-84
2022/03/16 04:19:25;;;;;;;81.60;20.60;;;;;;;1.81;100.00;101974.50;5043235;28;20054;-85
2022/03/16 04:21:51;;;;;;;51.55;17.58;;;;;;;1.81;100.00;101972.81;5031839;28;20052;-84
2022/03/16 04:24:18;;;;;;;49.90;16.02;;;;;;;1.83;100.00;101972.88;5029712;28;21016;-84
2022/03/16 04:26:45;;;;;;;80.00;19.27;;;;;;;1.83;100.00;101984.91;5035248;28;20079;-85
2022/03/16 04:29:12;;;;;;;45.92;16.67;;;;;;;1.77;100.00;101976.06;5035497;28;20040;-84
2022/03/16 04:31:38;;;;;;;40.55;16.50;;;;;;;1.77;100.00;101981.22;5053751;28;20052;-85
2022/03/16 04:34:05;;;;;;;31.15;14.98;;;;;;;1.78;100.00;101980.41;5028076;28;20072;-84
2022/03/16 04:36:32;;;;;;;34.30;14.20;;;;;;;1.77;100.00;101973.50;5033666;28;20056;-83
2022/03/16 04:38:58;;;;;;;28.77;12.98;;;;;;;1.78;100.00;101975.22;5045973;28;20617;-84
2022/03/16 04:41:27;;;;;;;29.13;14.18;;;;;;;1.76;100.00;101975.97;5027052;28;20059;-84
2022/03/16 04:43:54;;;;;;;25.02;13.35;;;;;;;1.71;100.00;101977.44;5030020;28;20045;-84
2022/03/16 04:46:21;;;;;;;29.70;15.18;;;;;;;1.72;100.00;101985.28;5059361;28;20145;-84
2022/03/16 04:48:47;;;;;;;25.13;16.02;;;;;;;1.77;100.00;101988.06;5043420;28;20140;-85
2022/03/16 04:51:14;;;;;;;22.55;13.88;;;;;;;1.84;100.00;101984.09;5046670;28;20387;-84
2022/03/16 04:53:41;;;;;;;26.63;13.68;;;;;;;1.88;100.00;101992.06;5045155;28;20044;-84
2022/03/16 04:56:07;;;;;;;56.00;18.45;;;;;;;1.91;100.00;101991.34;5047223;28;20045;-84
2022/03/16 04:58:34;;;;;;;34.80;15.50;;;;;;;1.92;100.00;101986.22;5027273;28;20076;-84
2022/03/16 05:01:01;;;;;;;31.00;16.77;;;;;;;1.95;100.00;101988.06;5042304;28;20052;-84
2022/03/16 05:03:27;;;;;;;25.50;14.65;;;;;;;2.00;100.00;101990.91;5046108;28;20132;-84
2022/03/16 05:05:55;;;;;;;24.15;14.93;;;;;;;2.04;100.00;101995.38;5030041;28;20044;-85
2022/03/16 05:08:21;;;;;;;59.75;19.27;;;;;;;2.05;100.00;101994.59;5042220;28;20036;-85
2022/03/16 05:10:48;;;;;;;45.30;18.88;;;;;;;2.04;100.00;102001.44;5022442;28;20056;-84
2022/03/16 05:13:14;;;;;;;88.28;21.67;;;;;;;2.06;100.00;101994.66;5040436;28;20555;-84
2022/03/16 05:15:41;;;;;;;52.05;18.00;;;;;;;2.00;100.00;101999.50;5025766;28;20048;-85
2022/03/16 05:18:08;;;;;;;40.97;17.40;;;;;;;2.00;100.00;102011.56;5044488;28;20033;-84
2022/03/16 05:20:34;;;;;;;67.55;20.90;;;;;;;2.00;100.00;102006.41;5028195;28;20052;-85
2022/03/16 05:23:01;;;;;;;41.25;18.77;;;;;;;2.03;100.00;102007.41;5044595;28;20045;-85
2022/03/16 05:25:31;;;;;;;41.50;17.15;;;;;;;2.07;100.00;102009.31;5049662;28;20036;-84
2022/03/16 05:27:57;;;;;;;56.53;16.73;;;;;;;2.11;100.00;102010.34;5057698;28;20105;-84
2022/03/16 05:30:26;;;;;;;37.90;17.90;;;;;;;2.07;100.00;102013.59;5029616;28;20063;-85
2022/03/16 05:33:00;;;;;;;46.88;17.85;;;;;;;2.06;100.00;102017.00;5051427;28;20048;-85
2022/03/16 05:35:28;;;;;;;59.97;20.55;;;;;;;2.04;100.00;102026.38;5055009;28;20083;-85
2022/03/16 05:37:55;;;;;;;29.83;16.38;;;;;;;2.02;100.00;102025.41;5068862;28;20413;-85
2022/03/16 05:40:22;;;;;;;51.45;17.27;;;;;;;2.01;100.00;102027.13;5032543;28;20041;-85
2022/03/16 05:42:49;;;;;;;49.13;17.48;;;;;;;1.96;100.00;102018.25;5063667;28;20621;-85
2022/03/16 05:45:15;;;;;;;45.90;16.52;;;;;;;1.97;100.00;102018.34;5042364;28;20040;-84
2022/03/16 05:47:42;;;;;;;48.38;17.80;;;;;;;1.99;100.00;102026.16;5046322;28;21124;-85
2022/03/16 05:50:10;;;;;;;65.85;19.45;;;;;;;1.89;100.00;102027.41;5045453;28;20036;-85
2022/03/16 05:52:37;;;;;;;28.40;15.98;;;;;;;1.82;100.00;102035.66;5045352;28;20068;-85
2022/03/16 05:55:07;;;;;;;22.55;13.70;;;;;;;1.83;100.00;102039.16;5029571;28;20068;-84
2022/03/16 05:57:37;;;;;;;37.33;17.52;;;;;;;1.82;100.00;102046.00;5045090;28;20068;-85
2022/03/16 06:00:14;;;;;;;29.27;14.48;;;;;;;1.85;100.00;102050.41;5069380;28;20508;-85
2022/03/16 06:02:42;;;;;;;23.80;15.73;;;;;;;1.87;100.00;102056.56;5037038;28;20076;-84
2022/03/16 06:05:09;;;;;;;23.60;14.80;;;;;;;1.91;100.00;102056.75;5029183;28;20064;-83
2022/03/16 06:07:37;;;;;;;22.40;16.13;;;;;;;1.93;100.00;102064.59;5030219;28;20045;-85
2022/03/16 06:10:06;;;;;;;24.30;14.32;;;;;;;1.96;100.00;102070.78;5027710;28;20053;-84
2022/03/16 06:12:32;;;;;;;25.20;15.02;;;;;;;1.96;100.00;102072.50;5062011;28;20049;-84
2022/03/16 06:14:59;;;;;;;27.67;15.75;;;;;;;1.93;100.00;102065.50;5047355;28;20102;-84
2022/03/16 06:17:26;;;;;;;24.35;14.68;;;;;;;1.90;100.00;102067.91;5041864;28;20106;-84
2022/03/16 06:19:52;;;;;;;30.58;16.77;;;;;;;1.87;100.00;102066.88;5029639;28;20071;-85
2022/03/16 06:22:21;;;;;;;26.38;16.02;;;;;;;1.88;100.00;102063.47;5042440;28;20052;-84
2022/03/16 06:24:47;;;;;;;27.75;16.77;;;;;;;1.89;100.00;102073.91;5045421;28;20098;-84
2022/03/16 06:27:17;;;;;;;28.73;16.75;;;;;;;1.94;100.00;102076.69;5039872;28;20051;-84
2022/03/16 06:29:46;;;;;;;26.35;15.23;;;;;;;2.00;100.00;102082.16;5027838;28;20044;-84
2022/03/16 06:32:12;;;;;;;32.63;16.73;;;;;;;2.02;100.00;102077.97;5058244;28;20227;-85
2022/03/16 06:34:39;;;;;;;23.95;15.27;;;;;;;2.04;100.00;102076.34;5042615;28;20309;-84
2022/03/16 06:37:05;;;;;;;33.78;16.75;;;;;;;2.10;100.00;102084.38;5041019;28;20056;-84
2022/03/16 06:39:32;;;;;;;27.77;15.30;;;;;;;2.14;100.00;102090.59;5040176;28;20052;-84
2022/03/16 06:41:58;;;;;;;24.35;14.18;;;;;;;2.19;100.00;102088.22;5041931;28;20448;-84
2022/03/16 06:44:25;;;;;;;24.42;15.75;;;;;;;2.19;100.00;102094.28;5039794;28;20055;-84
2022/03/16 06:46:52;;;;;;;22.92;14.73;;;;;;;2.24;100.00;102094.50;5042841;28;20156;-83
2022/03/16 06:49:19;;;;;;;23.77;14.63;;;;;;;2.30;100.00;102090.50;5030986;28;20048;-82
2022/03/16 06:51:45;;;;;;;24.77;14.90;;;;;;;2.38;100.00;102093.47;5074645;28;20063;-85
2022/03/16 06:54:12;;;;;;;25.15;15.38;;;;;;;2.42;100.00;102092.78;5045026;28;20028;-84
2022/03/16 06:56:39;;;;;;;22.55;14.20;;;;;;;2.40;100.00;102094.44;5043032;28;20037;-82
2022/03/16 06:59:07;;;;;;;21.55;14.15;;;;;;;2.45;100.00;102097.22;5032692;28;20041;-84
2022/03/16 07:01:37;;;;;;;22.85;16.17;;;;;;;2.53;100.00;102100.16;5051272;28;20070;-83
2022/03/16 07:04:05;;;;;;;18.67;13.27;;;;;;;2.62;100.00;102101.50;5035845;28;20147;-83
2022/03/16 07:06:31;;;;;;;22.90;15.43;;;;;;;2.76;100.00;102106.44;5058671;28;20056;-84
2022/03/16 07:08:58;;;;;;;22.23;14.85;;;;;;;2.86;100.00;102108.63;5030090;28;20402;-83
2022/03/16 07:11:25;;;;;;;24.20;16.10;;;;;;;2.96;100.00;102110.81;5047802;28;20060;-83
2022/03/16 07:16:32;;;;;;;20.75;14.35;;;;;;;3.08;100.00;102110.50;5045700;28;20044;-83
2022/03/16 07:18:59;;;;;;;21.98;13.85;;;;;;;3.25;100.00;102119.00;5047713;28;20151;-86
2022/03/16 07:21:25;;;;;;;21.00;14.68;;;;;;;3.44;100.00;102112.97;5046854;28;20123;-83
2022/03/16 07:23:52;;;;;;;21.90;15.00;;;;;;;3.64;100.00;102105.16;5032948;28;20717;-83
2022/03/16 07:26:19;;;;;;;26.17;16.25;;;;;;;3.84;100.00;102111.19;5047060;28;20040;-83
2022/03/16 07:28:46;;;;;;;21.83;14.27;;;;;;;4.00;100.00;102109.25;5049647;28;20056;-84
2022/03/16 07:31:12;;;;;;;20.88;13.57;;;;;;;4.14;100.00;102110.69;5049512;28;20056;-84
2022/03/16 07:33:39;;;;;;;19.75;14.45;;;;;;;4.27;100.00;102112.94;5034739;28;20414;-83
2022/03/16 07:36:06;;;;;;;29.20;16.98;;;;;;;4.47;100.00;102115.44;5043849;28;20041;-83
2022/03/16 07:38:32;;;;;;;21.27;13.90;;;;;;;4.68;100.00;102112.84;5026739;28;20038;-84
2022/03/16 07:40:59;;;;;;;16.77;13.07;;;;;;;4.88;100.00;102117.91;5051581;28;20054;-84
2022/03/16 07:43:26;;;;;;;26.80;15.77;;;;;;;5.12;100.00;102124.03;5046659;28;20080;-84
2022/03/16 07:45:52;;;;;;;20.45;14.43;;;;;;;5.44;100.00;102123.44;5048563;28;20056;-84
2022/03/16 07:48:19;;;;;;;19.65;13.93;;;;;;;5.68;100.00;102122.53;5030180;28;20076;-84
2022/03/16 07:50:46;;;;;;;20.42;15.00;;;;;;;5.79;100.00;102135.06;5032695;28;20032;-83
2022/03/16 07:53:12;;;;;;;21.23;13.65;;;;;;;5.85;100.00;102134.38;5031031;28;20044;-84
2022/03/16 07:55:39;;;;;;;20.65;13.90;;;;;;;6.07;100.00;102138.63;5030526;28;20439;-84
2022/03/16 07:58:08;;;;;;;20.00;14.02;;;;;;;6.24;99.08;102135.69;5049856;28;20040;-84
2022/03/16 08:00:35;;;;;;;25.73;15.82;;;;;;;6.38;98.76;102137.03;5042798;28;20040;-84
2022/03/16 08:03:03;;;;;;;28.15;16.25;;;;;;;6.51;97.02;102138.31;5030315;28;20044;-83
2022/03/16 08:05:30;;;;;;;23.52;16.45;;;;;;;6.59;96.54;102133.34;5045661;28;20148;-83
2022/03/16 08:07:57;;;;;;;28.95;17.10;;;;;;;6.62;95.09;102136.03;5046907;28;20139;-84
2022/03/16 08:10:24;;;;;;;28.35;19.27;;;;;;;6.66;95.96;102126.59;5029437;28;20071;-84
2022/03/16 08:12:51;;;;;;;24.60;16.25;;;;;;;6.76;94.99;102134.75;5023336;28;20084;-86
2022/03/16 08:15:18;;;;;;;21.15;14.57;;;;;;;6.82;94.37;102125.34;5031035;28;20044;-84
2022/03/16 08:17:46;;;;;;;21.35;15.02;;;;;;;6.99;92.80;102129.34;5046250;28;20071;-83
2022/03/16 08:20:13;;;;;;;24.48;15.63;;;;;;;7.09;92.16;102131.41;5046444;28;20060;-84
2022/03/16 08:22:40;;;;;;;22.52;15.93;;;;;;;7.37;91.55;102139.13;5034770;28;20076;-84
2022/03/16 08:25:12;;;;;;;22.65;16.30;;;;;;;7.85;90.09;102132.56;5030059;28;20130;-83
2022/03/16 08:27:40;;;;;;;23.25;15.40;;;;;;;8.56;87.49;102135.22;5048012;28;20049;-84
2022/03/16 08:30:10;;;;;;;22.42;15.57;;;;;;;9.09;82.13;102133.78;5061698;28;20667;-84
2022/03/16 08:32:42;;;;;;;19.60;14.43;;;;;;;9.58;79.71;102142.63;5044451;28;20049;-84
2022/03/16 08:35:17;;;;;;;22.23;15.95;;;;;;;9.83;77.72;102147.41;5025296;28;20052;-84
2022/03/16 08:37:44;;;;;;;20.52;14.48;;;;;;;10.04;78.15;102146.94;5047233;28;20052;-84
2022/03/16 08:40:21;;;;;;;;;;;;;;;;;;;;;
2022/03/16 08:42:54;;;;;;;24.27;16.42;;;;;;;10.18;76.17;102145.41;5041586;28;20128;-84
2022/03/16 08:45:20;;;;;;;22.75;15.55;;;;;;;10.18;74.04;102152.38;5044945;28;20044;-85
2022/03/16 08:47:47;;;;;;;23.73;16.95;;;;;;;10.15;75.39;102158.44;5057259;28;20399;-84
2022/03/16 08:50:29;;;;;;;20.25;15.75;;;;;;;10.23;74.84;102151.63;5047613;28;20042;-84
2022/03/16 08:52:58;;;;;;;22.90;17.13;;;;;;;10.38;75.05;102155.38;5038508;28;20044;-87
2022/03/16 08:55:25;;;;;;;20.92;15.75;;;;;;;10.47;74.14;102152.00;5030974;28;20044;-84
2022/03/16 08:58:00;;;;;;;25.02;18.63;;;;;;;10.56;73.67;102155.66;5048325;28;20071;-84
2022/03/16 09:00:29;;;;;;;20.95;16.75;;;;;;;10.65;73.60;102144.44;5027118;28;20044;-83
2022/03/16 09:02:59;;;;;;;21.67;17.15;;;;;;;10.79;72.93;102149.84;5033947;28;20044;-82
2022/03/16 09:05:26;;;;;;;22.42;16.52;;;;;;;10.84;72.58;102153.41;5029490;28;20055;-82
2022/03/16 09:07:56;;;;;;;25.55;16.55;;;;;;;10.87;72.40;102153.47;5033060;28;20060;-83
2022/03/16 09:10:27;;;;;;;24.65;16.90;;;;;;;10.89;71.66;102151.75;5051291;28;20045;-85
2022/03/16 09:12:54;;;;;;;25.13;18.20;;;;;;;10.75;71.10;102153.28;5063822;28;20055;-83
2022/03/16 09:15:23;;;;;;;28.55;17.35;;;;;;;10.41;71.55;102158.03;5048358;28;20128;-84
2022/03/16 09:17:50;;;;;;;23.58;17.38;;;;;;;10.19;72.77;102152.38;5044213;28;20059;-83
2022/03/16 09:20:20;;;;;;;20.42;15.88;;;;;;;10.10;73.35;102160.09;5049432;28;20053;-84
2022/03/16 09:22:51;;;;;;;21.92;16.77;;;;;;;10.06;73.57;102156.56;5046097;28;20099;-84
2022/03/16 09:25:18;;;;;;;25.02;18.90;;;;;;;10.03;73.18;102166.09;5034594;28;20045;-84
2022/03/16 09:27:47;;;;;;;25.73;17.90;;;;;;;9.90;73.81;102164.97;5025066;28;20044;-84
2022/03/16 09:30:14;;;;;;;23.60;17.65;;;;;;;9.71;74.13;102164.66;5065672;28;20098;-84
2022/03/16 09:32:41;;;;;;;23.63;16.92;;;;;;;9.62;74.90;102160.97;5050711;28;20063;-84
2022/03/16 09:35:12;;;;;;;21.17;16.05;;;;;;;9.61;75.45;102157.47;5036503;28;20556;-84
2022/03/16 09:37:40;;;;;;;22.95;18.05;;;;;;;9.69;74.75;102161.09;5032286;28;20044;-84
2022/03/16 09:40:12;;;;;;;23.77;17.48;;;;;;;9.75;74.35;102160.34;5036562;28;20040;-84
2022/03/16 09:42:40;;;;;;;21.17;15.80;;;;;;;9.72;74.28;102162.91;5034983;28;20048;-83
2022/03/16 09:45:12;;;;;;;21.88;16.90;;;;;;;9.68;73.85;102169.81;5036471;28;20518;-84
2022/03/16 09:47:39;;;;;;;24.27;16.67;;;;;;;9.67;74.53;102165.41;5033967;28;20109;-83
2022/03/16 09:50:07;;;;;;;25.58;17.58;;;;;;;9.75;74.22;102161.22;5035863;28;20140;-83
2022/03/16 09:52:36;;;;;;;25.67;18.58;;;;;;;9.88;73.16;102167.56;5025637;28;20170;-84
2022/03/16 09:55:06;;;;;;;19.67;16.25;;;;;;;10.06;72.66;102155.66;5033697;28;20044;-84
2022/03/16 09:57:36;;;;;;;25.17;17.95;;;;;;;10.33;71.90;102155.25;5050149;28;20040;-84
2022/03/16 10:00:06;;;;;;;34.15;23.25;;;;;;;10.65;70.60;102148.78;5050274;28;20040;-83
2022/03/16 10:02:33;;;;;;;30.73;19.92;;;;;;;10.91;69.52;102149.13;5051592;28;20052;-83
2022/03/16 10:04:59;;;;;;;27.15;18.05;;;;;;;11.24;68.61;102153.09;5034222;28;20124;-83
2022/03/16 10:07:29;;;;;;;31.52;17.98;;;;;;;11.49;66.54;102150.75;5049604;28;20048;-84
2022/03/16 10:15:25;;;;;;;25.67;18.05;;;;;;;13.44;61.17;102145.22;5031951;28;20495;-83
2022/03/16 10:18:02;;;;;;;26.35;18.98;;;;;;;14.58;58.08;102143.53;5055918;28;20041;-84
2022/03/16 10:20:40;;;;;;;23.80;16.00;;;;;;;15.64;55.50;102140.47;5051869;28;20055;-84
2022/03/16 10:23:24;;;;;;;23.77;16.75;;;;;;;16.67;51.91;102135.25;5044441;28;20044;-83
2022/03/16 10:25:54;;;;;;;22.77;13.75;;;;;;;17.59;48.67;102135.03;5031204;28;20762;-85
2022/03/16 10:28:23;;;;;;;17.05;11.85;;;;;;;18.44;47.64;102126.59;5064265;28;20059;-85
2022/03/16 10:30:59;;;;;;;25.63;16.15;;;;;;;19.32;44.06;102130.16;5033941;28;20123;-83
2022/03/16 10:33:35;;;;;;;16.70;13.18;;;;;;;19.72;43.79;102132.81;5048422;28;20045;-85
2022/03/16 10:36:08;;;;;;;20.70;13.43;;;;;;;19.98;38.59;102122.44;5063829;28;20049;-83
2022/03/16 10:38:46;;;;;;;19.27;13.65;;;;;;;19.96;39.37;102123.44;5048976;28;20045;-83
2022/03/16 10:47:00;;;;;;;16.27;12.43;;;;;;;20.55;40.19;102113.91;5053036;28;20049;-81
2022/03/16 10:49:34;;;;;;;15.48;11.77;;;;;;;20.68;39.45;102112.66;5036402;28;20052;-81
2022/03/16 10:52:14;;;;;;;15.73;12.07;;;;;;;20.06;38.29;102121.41;5046431;28;20052;-83
2022/03/16 10:54:42;;;;;;;14.65;12.57;;;;;;;19.60;39.52;102105.63;5048276;28;20052;-85
2022/03/16 10:57:12;;;;;;;14.93;11.15;;;;;;;19.55;39.10;102104.00;5029585;28;20036;-84
2022/03/16 10:59:42;;;;;;;14.50;10.57;;;;;;;19.55;39.43;102104.88;5048099;28;20061;-83
2022/03/16 11:02:12;;;;;;;15.85;10.57;;;;;;;19.63;38.96;102104.69;5031177;28;20117;-83
2022/03/16 11:04:40;;;;;;;16.90;11.23;;;;;;;19.60;38.01;102097.66;5029035;28;20036;-84
2022/03/16 11:07:07;;;;;;;13.15;10.63;;;;;;;19.53;38.37;102103.16;5032504;28;20048;-83
2022/03/16 11:09:36;;;;;;;16.10;11.38;;;;;;;19.26;38.11;102103.75;5045896;28;20090;-84
2022/03/16 11:14:50;;;;;;;17.02;10.68;;;;;;;18.93;38.57;102095.63;5043283;28;20051;-85
2022/03/16 11:17:18;;;;;;;18.25;11.00;;;;;;;18.34;37.96;102088.78;5048231;28;20049;-83
2022/03/16 11:19:51;;;;;;;15.13;10.52;;;;;;;18.27;38.80;102073.03;5062617;28;20044;-83
2022/03/16 11:24:15;;;;;;;15.57;11.02;;;;;;;18.07;37.99;102082.19;5043341;28;20035;-84
2022/03/16 11:25:35;;;;;;;17.80;10.15;;;;;;;18.15;38.34;102074.97;5031145;28;20358;-85
2022/03/16 11:28:09;;;;;;;17.25;11.32;;;;;;;18.52;36.51;102074.31;5041685;28;20052;-84
2022/03/16 11:30:38;;;;;;;14.57;10.63;;;;;;;18.98;36.83;102072.50;5034371;28;20041;-82
2022/03/16 11:33:08;;;;;;;15.57;10.68;;;;;;;19.80;36.04;102064.41;5028232;28;20492;-85